San Luis Valley Regional Bergman Field
KALS : now visible

Airfield :











YOU CAN JOIN US ON...

 
LOGIN :

Register | Disclaimer

   EN    FR    IT 

 









Legend :    VFR   Marginal VFR   IFR   Intensive IFR   Very Intensive IFR
Visi :
Ceiling :
>= 8 km
>= 3000ft
5 to 8 km
1000 to 3000 ft
1500m to 5 km
500 to 1000 ft
800 to 1500m
200 to 500 ft
< 800m
< 200 ft
Symbols :   Thunderstorms  Fog  Heavy snow  Heavy precipitations  Wind > 20 kt






- Airport Elevation : 7539 ft


KALS - San Luis Valley Regional Bergman Field

CURRENT METAR :
  • 122352Z AUTO 00000KT 10SM CLR 05/M12 A3022 RMK AO2 SLP260 T00501122 10089 20017 56012

EXPIRED METARs :
  • 122252Z AUTO 00000KT 10SM CLR 08/M12 A3023 RMK AO2 SLP246 T00781117
  • 122152Z AUTO 05004KT 10SM CLR 08/M12 A3024 RMK AO2 SLP250 T00831122

TAF KALS
Valid from the 13 at 00:00 until the 14 at 00:00 UTC


122324Z 1300/1324 VRB05KT P6SM SCT250
FM132000 33007KT P6SM SCT250



MET'MAP, your aeronautical weather chart ! - Copyright ORBIFLY December 2007 - Disclaimer

ORBIFLY MET'MAP TEAM :

Programming & Development : Alexandra Zaïnal
Concept & Development : Baudouin d'Aumeries
Co-Development & Prog : Marc-Olivier Méhu
Technical & hardware support : Manuel Goepfert

Contact : metmap@orbifly.com




SOURCES & CREDITS :

   NOAA       Earth
Advisory